Time;durP1;ratioP1;P1;durP2;ratioP2;P2;SDS_P1;SDS_P2;PMS_P1;PMS_P2;Temp;Humidity;BMP_temperature;BMP_pressure;BME280_temperature;BME280_humidity;BME280_pressure;Samples;Min_cycle;Max_cycle;Signal;HPM_P1;HPM_P2
2023/01/18 08:03:16;;;;;;;3.63;2.53;;;0.10;99.90;;;;;;5136391;27;20275;-81
2023/01/18 08:10:44;;;;;;;1.90;1.40;;;0.30;99.90;;;;;;5136502;27;20287;-81
2023/01/18 08:13:10;;;;;;;3.97;2.87;;;0.30;99.90;;;;;;5144472;27;20428;-80
2023/01/18 08:15:37;;;;;;;2.40;2.10;;;0.40;99.90;;;;;;5152367;28;20171;-80
2023/01/18 08:18:04;;;;;;;1.83;1.70;;;0.50;99.90;;;;;;5153359;27;20164;-80
2023/01/18 08:20:30;;;;;;;2.83;2.33;;;0.60;99.90;;;;;;5154192;28;20254;-80
2023/01/18 08:22:57;;;;;;;3.20;2.03;;;0.80;99.90;;;;;;5155853;27;20189;-80
2023/01/18 08:25:28;;;;;;;3.10;2.07;;;1.50;99.90;;;;;;5154910;28;20416;-81
2023/01/18 08:28:03;;;;;;;10.40;4.87;;;2.10;99.90;;;;;;5154188;28;20226;-79
2023/01/18 08:30:32;;;;;;;10.50;4.83;;;2.50;99.90;;;;;;5153524;28;20212;-80
2023/01/18 08:33:00;;;;;;;19.47;9.50;;;2.80;99.90;;;;;;5154260;28;20239;-80
2023/01/18 08:35:30;;;;;;;7.80;3.93;;;3.10;99.90;;;;;;5154249;28;20447;-81
2023/01/18 08:37:58;;;;;;;4.57;3.10;;;3.10;99.90;;;;;;5154102;28;20176;-81
2023/01/18 08:40:25;;;;;;;7.33;3.97;;;3.30;99.90;;;;;;5153543;27;20173;-80
2023/01/18 08:43:01;;;;;;;3.10;2.37;;;3.30;99.90;;;;;;5152908;28;20272;-80
2023/01/18 08:45:27;;;;;;;2.90;2.03;;;3.20;99.90;;;;;;5152027;28;20175;-80
2023/01/18 08:47:56;;;;;;;2.57;1.67;;;3.10;99.90;;;;;;5153350;28;20248;-80
2023/01/18 08:50:22;;;;;;;2.40;1.83;;;3.10;99.90;;;;;;5153491;28;20210;-80
2023/01/18 08:52:47;;;;;;;1.67;1.57;;;2.90;99.90;;;;;;5152946;27;20191;-80
2023/01/18 08:55:13;;;;;;;2.83;2.40;;;2.70;99.90;;;;;;5153270;27;20162;-81
2023/01/18 08:57:39;;;;;;;6.17;4.50;;;2.50;99.90;;;;;;5154712;27;20157;-82
2023/01/18 09:00:05;;;;;;;4.37;3.27;;;2.20;99.90;;;;;;5153778;27;20197;-80
2023/01/18 09:02:31;;;;;;;1.87;1.70;;;1.90;99.90;;;;;;5148162;28;20181;-82
2023/01/18 09:04:57;;;;;;;7.57;4.10;;;1.70;99.90;;;;;;5140388;28;20215;-82
2023/01/18 09:07:22;;;;;;;13.97;6.00;;;1.50;99.90;;;;;;5150514;28;20180;-80
2023/01/18 09:09:48;;;;;;;5.30;2.73;;;1.50;99.90;;;;;;5152277;27;20215;-79
2023/01/18 09:12:14;;;;;;;3.57;2.30;;;1.40;99.90;;;;;;5152356;27;20211;-80
2023/01/18 09:14:39;;;;;;;3.07;1.80;;;1.30;99.90;;;;;;5152529;27;20172;-80
2023/01/18 09:17:05;;;;;;;5.73;3.90;;;1.30;99.90;;;;;;5153247;27;20276;-80
2023/01/18 09:47:23;;;;;;;1.30;1.20;;;0.90;99.90;;;;;;5135843;27;20639;-81
2023/01/18 09:51:22;;;;;;;1.07;0.97;;;1.00;99.90;;;;;;5096308;28;20280;-81
2023/01/18 09:54:32;;;;;;;1.97;1.60;;;1.00;99.90;;;;;;5092948;28;20410;-81
2023/01/18 09:57:03;;;;;;;1.57;1.47;;;1.00;99.90;;;;;;5051631;28;20428;-81
2023/01/18 09:59:41;;;;;;;4.97;2.67;;;1.00;99.90;;;;;;5090760;28;20213;-81
2023/01/18 10:02:15;;;;;;;2.40;1.90;;;1.10;99.90;;;;;;5092549;28;20505;-82
2023/01/18 10:04:46;;;;;;;5.10;3.10;;;1.20;99.90;;;;;;5093863;28;20168;-81
2023/01/18 10:07:17;;;;;;;3.13;2.73;;;1.20;99.90;;;;;;5092528;28;20415;-81
2023/01/18 10:09:53;;;;;;;1.73;1.57;;;1.40;99.90;;;;;;5094583;28;20717;-82
2023/01/18 10:12:40;;;;;;;1.93;1.73;;;1.40;99.90;;;;;;5094776;28;20691;-82
2023/01/18 10:15:19;;;;;;;3.43;2.47;;;1.50;99.90;;;;;;5100297;28;20647;-79
2023/01/18 10:17:46;;;;;;;1.93;1.73;;;1.70;99.90;;;;;;5095059;28;20255;-82
2023/01/18 10:20:27;;;;;;;3.80;2.80;;;1.90;99.90;;;;;;5096831;28;20236;-82
2023/01/18 10:23:04;;;;;;;1.77;1.67;;;1.80;99.90;;;;;;5091860;28;20177;-82
2023/01/18 10:25:52;;;;;;;1.67;1.57;;;1.60;99.90;;;;;;5091565;28;20596;-81
2023/01/18 10:28:35;;;;;;;1.90;1.70;;;1.70;99.90;;;;;;5092634;28;20172;-81
2023/01/18 10:31:16;;;;;;;2.30;2.10;;;2.50;99.90;;;;;;5091750;28;20218;-81
2023/01/18 10:33:45;;;;;;;1.67;1.57;;;2.90;99.90;;;;;;5092703;28;20161;-81
2023/01/18 10:36:18;;;;;;;2.53;2.33;;;2.60;99.90;;;;;;5091117;28;20640;-81
2023/01/18 10:38:46;;;;;;;1.70;1.60;;;2.10;99.90;;;;;;5092588;28;20185;-81
2023/01/18 10:41:24;;;;;;;4.83;4.43;;;2.00;99.90;;;;;;5090921;28;20210;-80
2023/01/18 10:43:50;;;;;;;7.13;6.10;;;1.80;99.90;;;;;;5091583;28;20245;-80
2023/01/18 10:46:18;;;;;;;2.07;1.97;;;1.70;99.90;;;;;;5090894;28;20713;-81
2023/01/18 10:48:52;;;;;;;2.00;1.80;;;1.70;99.90;;;;;;5092805;28;20544;-81
2023/01/18 10:51:26;;;;;;;2.10;2.00;;;1.80;99.90;;;;;;5091021;28;20177;-81
2023/01/18 10:53:52;;;;;;;2.50;2.30;;;1.70;99.90;;;;;;5092130;28;20171;-83
2023/01/18 10:56:23;;;;;;;2.33;1.70;;;1.60;99.90;;;;;;5091405;28;20226;-81
2023/01/18 10:58:59;;;;;;;3.77;2.33;;;1.50;99.90;;;;;;5091627;28;20220;-82
2023/01/18 11:01:33;;;;;;;2.00;1.90;;;1.30;99.90;;;;;;5086718;28;20171;-81
2023/01/18 11:04:41;;;;;;;2.03;1.70;;;1.20;99.90;;;;;;5078231;28;20195;-81
2023/01/18 11:07:07;;;;;;;3.80;1.73;;;1.10;99.90;;;;;;5000813;28;20176;-80
2023/01/18 11:17:55;;;;;;;2.97;2.47;;;0.70;99.90;;;;;;5135766;27;20301;-80
2023/01/18 11:23:54;;;;;;;5.87;3.93;;;0.80;99.90;;;;;;5135593;27;20275;-81
2023/01/18 11:28:15;;;;;;;7.37;5.57;;;0.80;99.90;;;;;;5135590;27;20273;-82
2023/01/18 11:35:58;;;;;;;6.63;4.40;;;0.70;99.90;;;;;;5136156;27;20270;-82
2023/01/18 11:44:31;;;;;;;6.27;4.40;;;0.80;99.90;;;;;;5137731;27;20274;-83
2023/01/18 11:50:51;;;;;;;3.83;3.27;;;0.60;99.90;;;;;;5141220;27;20279;-81
2023/01/18 11:56:39;;;;;;;22.70;9.20;;;1.00;99.90;;;;;;5135932;27;20273;-82
2023/01/18 12:01:45;;;;;;;17.57;10.20;;;0.80;99.90;;;;;;5141416;27;20271;-81
2023/01/18 12:36:01;;;;;;;3.80;2.77;;;0.60;99.90;;;;;;5137890;27;20274;-83
2023/01/18 13:47:57;;;;;;;2.57;2.07;;;0.70;99.90;;;;;;5154835;27;20263;-82
2023/01/18 13:51:43;;;;;;;3.30;2.37;;;0.80;99.90;;;;;;5134861;27;20271;-83
2023/01/18 13:56:32;;;;;;;2.47;2.20;;;0.80;99.90;;;;;;5134639;27;20271;-82
2023/01/18 14:01:22;;;;;;;4.43;2.33;;;0.90;99.90;;;;;;5118068;27;20264;-83
2023/01/18 14:03:51;;;;;;;4.37;2.50;;;1.10;99.90;;;;;;5115298;28;20767;-83
2023/01/18 14:06:31;;;;;;;6.03;2.93;;;1.10;99.90;;;;;;5115166;28;20501;-83
2023/01/18 14:09:13;;;;;;;5.27;3.37;;;1.30;99.90;;;;;;5115355;28;20286;-83
2023/01/18 14:11:42;;;;;;;5.53;3.17;;;1.30;99.90;;;;;;5116208;28;21083;-82
2023/01/18 14:14:11;;;;;;;7.50;4.67;;;1.20;99.90;;;;;;5112888;28;20464;-82
2023/01/18 14:16:53;;;;;;;7.37;4.23;;;1.20;99.90;;;;;;5113992;28;20203;-81
2023/01/18 14:19:20;;;;;;;2.30;2.10;;;1.20;99.90;;;;;;5112828;28;20456;-80
2023/01/18 14:22:18;;;;;;;4.13;2.97;;;1.00;99.90;;;;;;5115324;28;20226;-82
2023/01/18 14:28:09;;;;;;;5.13;3.00;;;0.60;99.90;;;;;;5136550;27;20755;-82
2023/01/18 14:32:32;;;;;;;6.13;3.83;;;0.50;99.90;;;;;;5137002;27;20267;-81
2023/01/18 14:36:59;;;;;;;4.63;3.03;;;0.50;99.90;;;;;;5144066;27;20267;-80
2023/01/18 14:41:37;;;;;;;6.37;3.93;;;0.60;99.90;;;;;;4992924;28;20305;-82
2023/01/18 14:47:19;;;;;;;5.07;2.77;;;0.60;99.90;;;;;;5135007;27;20271;-80
